sensor_id;sensor_type;location;lat;lon;timestamp;pressure;altitude;pressure_sealevel;temperature;humidity
6514;BME280;3290;47.716;9.070;2023-08-20T00:01:39;97203.66;;;25.54;80.58
6514;BME280;3290;47.716;9.070;2023-08-20T00:04:08;97202.19;;;25.48;81.17
6514;BME280;3290;47.716;9.070;2023-08-20T00:06:34;97203.75;;;25.49;81.46
6514;BME280;3290;47.716;9.070;2023-08-20T00:09:00;97204.19;;;25.43;81.44
6514;BME280;3290;47.716;9.070;2023-08-20T00:11:25;97213.50;;;25.59;80.49
6514;BME280;3290;47.716;9.070;2023-08-20T00:13:50;97206.75;;;25.61;80.24
6514;BME280;3290;47.716;9.070;2023-08-20T00:16:16;97213.47;;;25.72;79.80
6514;BME280;3290;47.716;9.070;2023-08-20T00:18:51;97210.94;;;25.67;80.16
6514;BME280;3290;47.716;9.070;2023-08-20T00:21:16;97214.88;;;25.56;80.43
6514;BME280;3290;47.716;9.070;2023-08-20T00:23:42;97212.25;;;25.30;82.04
6514;BME280;3290;47.716;9.070;2023-08-20T00:26:07;97208.19;;;25.19;82.34
6514;BME280;3290;47.716;9.070;2023-08-20T00:28:33;97211.06;;;25.09;83.79
6514;BME280;3290;47.716;9.070;2023-08-20T00:31:11;97211.72;;;24.88;84.72
6514;BME280;3290;47.716;9.070;2023-08-20T00:33:36;97210.16;;;25.00;84.28
6514;BME280;3290;47.716;9.070;2023-08-20T00:36:01;97210.59;;;24.75;85.36
6514;BME280;3290;47.716;9.070;2023-08-20T00:38:27;97212.16;;;24.95;84.62
6514;BME280;3290;47.716;9.070;2023-08-20T00:40:53;97207.47;;;25.00;83.67
6514;BME280;3290;47.716;9.070;2023-08-20T00:43:21;97214.94;;;25.03;84.08
6514;BME280;3290;47.716;9.070;2023-08-20T00:45:46;97217.09;;;25.14;83.38
6514;BME280;3290;47.716;9.070;2023-08-20T00:48:12;97224.47;;;25.09;83.71
6514;BME280;3290;47.716;9.070;2023-08-20T00:50:38;97218.59;;;25.07;84.02
6514;BME280;3290;47.716;9.070;2023-08-20T00:53:04;97220.44;;;24.93;84.33
6514;BME280;3290;47.716;9.070;2023-08-20T00:55:30;97219.66;;;24.79;85.31
6514;BME280;3290;47.716;9.070;2023-08-20T00:57:55;97220.84;;;24.73;85.62
6514;BME280;3290;47.716;9.070;2023-08-20T01:00:23;97212.75;;;24.60;86.70
6514;BME280;3290;47.716;9.070;2023-08-20T01:02:54;97214.88;;;24.63;86.39
6514;BME280;3290;47.716;9.070;2023-08-20T01:05:19;97217.41;;;24.54;87.18
6514;BME280;3290;47.716;9.070;2023-08-20T01:13:31;97212.25;;;24.58;86.68
6514;BME280;3290;47.716;9.070;2023-08-20T01:15:56;97218.00;;;24.52;87.23
6514;BME280;3290;47.716;9.070;2023-08-20T01:18:30;97219.19;;;24.46;87.77
6514;BME280;3290;47.716;9.070;2023-08-20T01:21:01;97223.84;;;24.40;87.41
6514;BME280;3290;47.716;9.070;2023-08-20T01:24:01;97230.22;;;24.26;88.10
6514;BME280;3290;47.716;9.070;2023-08-20T01:29:18;97236.25;;;24.36;88.51
6514;BME280;3290;47.716;9.070;2023-08-20T01:31:44;97241.34;;;24.51;87.14
6514;BME280;3290;47.716;9.070;2023-08-20T01:34:10;97254.28;;;24.62;86.53
6514;BME280;3290;47.716;9.070;2023-08-20T01:36:37;97256.75;;;24.59;86.54
6514;BME280;3290;47.716;9.070;2023-08-20T01:39:03;97257.13;;;24.53;86.73
6514;BME280;3290;47.716;9.070;2023-08-20T01:41:30;97253.53;;;24.44;87.35
6514;BME280;3290;47.716;9.070;2023-08-20T01:43:55;97248.19;;;24.07;88.95
6514;BME280;3290;47.716;9.070;2023-08-20T01:46:23;97252.03;;;23.83;90.05
6514;BME280;3290;47.716;9.070;2023-08-20T01:48:49;97248.84;;;23.81;89.78
6514;BME280;3290;47.716;9.070;2023-08-20T01:51:14;97254.84;;;23.91;89.57
6514;BME280;3290;47.716;9.070;2023-08-20T01:53:40;97248.63;;;23.77;91.23
6514;BME280;3290;47.716;9.070;2023-08-20T01:56:11;97246.41;;;23.66;91.69
6514;BME280;3290;47.716;9.070;2023-08-20T01:58:48;97243.53;;;23.58;93.05
6514;BME280;3290;47.716;9.070;2023-08-20T02:01:14;97250.81;;;23.52;92.61
6514;BME280;3290;47.716;9.070;2023-08-20T02:03:39;97247.00;;;23.58;92.50
6514;BME280;3290;47.716;9.070;2023-08-20T02:06:04;97246.19;;;23.58;92.61
6514;BME280;3290;47.716;9.070;2023-08-20T02:08:30;97243.66;;;23.48;93.25
6514;BME280;3290;47.716;9.070;2023-08-20T02:11:02;97237.84;;;23.64;92.70
6514;BME280;3290;47.716;9.070;2023-08-20T02:13:31;97239.16;;;23.67;92.58
6514;BME280;3290;47.716;9.070;2023-08-20T02:16:01;97237.03;;;23.64;92.52
6514;BME280;3290;47.716;9.070;2023-08-20T02:18:27;97242.75;;;23.57;92.97
6514;BME280;3290;47.716;9.070;2023-08-20T02:20:52;97242.91;;;23.42;93.20
6514;BME280;3290;47.716;9.070;2023-08-20T02:23:20;97246.78;;;23.55;93.11
6514;BME280;3290;47.716;9.070;2023-08-20T02:25:46;97242.53;;;23.54;92.45
6514;BME280;3290;47.716;9.070;2023-08-20T02:28:12;97238.88;;;23.45;92.63
6514;BME280;3290;47.716;9.070;2023-08-20T02:30:42;97236.69;;;23.29;93.60
6514;BME280;3290;47.716;9.070;2023-08-20T02:33:07;97244.06;;;23.36;93.38
6514;BME280;3290;47.716;9.070;2023-08-20T02:35:33;97246.53;;;23.33;93.31
6514;BME280;3290;47.716;9.070;2023-08-20T02:37:58;97242.03;;;23.29;93.21
6514;BME280;3290;47.716;9.070;2023-08-20T02:40:24;97252.00;;;23.00;95.30
6514;BME280;3290;47.716;9.070;2023-08-20T02:42:49;97248.34;;;22.91;95.86
6514;BME280;3290;47.716;9.070;2023-08-20T02:45:15;97249.56;;;23.03;95.84
6514;BME280;3290;47.716;9.070;2023-08-20T02:47:40;97252.88;;;22.91;96.50
6514;BME280;3290;47.716;9.070;2023-08-20T02:50:08;97252.88;;;22.91;96.42
6514;BME280;3290;47.716;9.070;2023-08-20T02:52:34;97251.72;;;23.01;95.90
6514;BME280;3290;47.716;9.070;2023-08-20T02:55:17;97254.63;;;23.05;96.38
6514;BME280;3290;47.716;9.070;2023-08-20T02:57:42;97258.50;;;23.17;95.37
6514;BME280;3290;47.716;9.070;2023-08-20T03:00:28;97260.63;;;22.87;97.71
6514;BME280;3290;47.716;9.070;2023-08-20T03:02:54;97267.81;;;22.96;97.27
6514;BME280;3290;47.716;9.070;2023-08-20T03:05:28;97273.25;;;23.10;95.98
6514;BME280;3290;47.716;9.070;2023-08-20T03:07:54;97263.56;;;22.91;97.41
6514;BME280;3290;47.716;9.070;2023-08-20T03:10:19;97261.66;;;22.96;97.57
6514;BME280;3290;47.716;9.070;2023-08-20T03:12:44;97265.59;;;23.03;96.33
6514;BME280;3290;47.716;9.070;2023-08-20T03:15:10;97262.91;;;23.03;95.65
6514;BME280;3290;47.716;9.070;2023-08-20T03:17:38;97271.03;;;23.17;95.43
6514;BME280;3290;47.716;9.070;2023-08-20T03:20:04;97274.13;;;23.05;95.94
6514;BME280;3290;47.716;9.070;2023-08-20T03:22:32;97280.34;;;23.24;94.98
6514;BME280;3290;47.716;9.070;2023-08-20T03:25:18;97281.81;;;23.35;94.15
6514;BME280;3290;47.716;9.070;2023-08-20T03:27:43;97284.88;;;23.47;93.61
6514;BME280;3290;47.716;9.070;2023-08-20T03:30:11;97282.19;;;23.47;93.18
6514;BME280;3290;47.716;9.070;2023-08-20T03:32:38;97281.03;;;23.34;93.18
6514;BME280;3290;47.716;9.070;2023-08-20T03:35:04;97281.69;;;22.98;94.45
6514;BME280;3290;47.716;9.070;2023-08-20T03:37:33;97270.00;;;22.90;94.97
6514;BME280;3290;47.716;9.070;2023-08-20T03:39:58;97279.53;;;23.00;93.63
6514;BME280;3290;47.716;9.070;2023-08-20T03:44:52;97279.19;;;23.07;93.55
6514;BME280;3290;47.716;9.070;2023-08-20T03:47:23;97284.97;;;22.91;95.10
6514;BME280;3290;47.716;9.070;2023-08-20T03:49:48;97293.34;;;23.07;94.80
6514;BME280;3290;47.716;9.070;2023-08-20T03:52:17;97297.28;;;23.15;95.00
6514;BME280;3290;47.716;9.070;2023-08-20T03:54:42;97295.94;;;23.17;94.25
6514;BME280;3290;47.716;9.070;2023-08-20T03:57:07;97292.63;;;23.25;92.97
6514;BME280;3290;47.716;9.070;2023-08-20T03:59:33;97295.47;;;23.10;92.85
6514;BME280;3290;47.716;9.070;2023-08-20T04:01:58;97294.31;;;22.93;93.88
6514;BME280;3290;47.716;9.070;2023-08-20T04:04:24;97295.22;;;22.79;93.66
6514;BME280;3290;47.716;9.070;2023-08-20T04:06:49;97294.09;;;22.85;94.06
6514;BME280;3290;47.716;9.070;2023-08-20T04:09:15;97293.97;;;22.99;93.53
6514;BME280;3290;47.716;9.070;2023-08-20T04:11:41;97302.91;;;23.13;93.07
6514;BME280;3290;47.716;9.070;2023-08-20T04:14:07;97307.41;;;23.18;92.38
6514;BME280;3290;47.716;9.070;2023-08-20T04:16:32;97301.47;;;22.97;94.77
6514;BME280;3290;47.716;9.070;2023-08-20T04:18:58;97311.69;;;22.91;94.87
6514;BME280;3290;47.716;9.070;2023-08-20T04:21:23;97305.75;;;22.98;93.50
6514;BME280;3290;47.716;9.070;2023-08-20T04:23:48;97304.94;;;22.98;93.25
6514;BME280;3290;47.716;9.070;2023-08-20T04:26:14;97314.91;;;22.92;94.09
6514;BME280;3290;47.716;9.070;2023-08-20T04:28:39;97313.94;;;22.79;94.94
6514;BME280;3290;47.716;9.070;2023-08-20T04:31:05;97317.75;;;22.68;96.18
6514;BME280;3290;47.716;9.070;2023-08-20T04:33:30;97315.97;;;22.58;96.06
6514;BME280;3290;47.716;9.070;2023-08-20T04:35:56;97317.31;;;22.61;95.75
6514;BME280;3290;47.716;9.070;2023-08-20T04:38:22;97311.97;;;22.61;96.16
6514;BME280;3290;47.716;9.070;2023-08-20T04:40:48;97308.13;;;22.72;96.05
6514;BME280;3290;47.716;9.070;2023-08-20T04:43:14;97310.63;;;22.58;96.47
6514;BME280;3290;47.716;9.070;2023-08-20T04:45:40;97318.66;;;22.53;97.61
6514;BME280;3290;47.716;9.070;2023-08-20T04:48:06;97312.09;;;22.41;98.37
6514;BME280;3290;47.716;9.070;2023-08-20T04:50:31;97313.44;;;22.44;98.62
6514;BME280;3290;47.716;9.070;2023-08-20T04:52:56;97314.72;;;22.46;98.95
6514;BME280;3290;47.716;9.070;2023-08-20T04:55:25;97314.31;;;22.29;100.00
6514;BME280;3290;47.716;9.070;2023-08-20T04:57:50;97312.75;;;22.28;100.00
6514;BME280;3290;47.716;9.070;2023-08-20T05:00:16;97312.75;;;22.23;100.00
6514;BME280;3290;47.716;9.070;2023-08-20T05:02:41;97315.28;;;22.43;99.81
6514;BME280;3290;47.716;9.070;2023-08-20T05:05:06;97307.56;;;22.42;99.53
6514;BME280;3290;47.716;9.070;2023-08-20T05:07:32;97301.50;;;22.31;100.00
6514;BME280;3290;47.716;9.070;2023-08-20T05:09:57;97307.56;;;22.42;100.00
6514;BME280;3290;47.716;9.070;2023-08-20T05:12:23;97310.91;;;22.57;100.00
6514;BME280;3290;47.716;9.070;2023-08-20T05:14:48;97313.09;;;22.78;100.00
6514;BME280;3290;47.716;9.070;2023-08-20T05:17:16;97316.75;;;22.87;99.90
6514;BME280;3290;47.716;9.070;2023-08-20T05:19:41;97310.25;;;23.03;99.14
6514;BME280;3290;47.716;9.070;2023-08-20T05:22:07;97319.34;;;23.25;97.57
6514;BME280;3290;47.716;9.070;2023-08-20T05:24:36;97333.50;;;23.54;95.64
6514;BME280;3290;47.716;9.070;2023-08-20T05:27:08;97333.03;;;23.70;95.06
6514;BME280;3290;47.716;9.070;2023-08-20T05:29:40;97339.06;;;23.80;93.86
6514;BME280;3290;47.716;9.070;2023-08-20T05:32:06;97342.03;;;23.97;93.20
6514;BME280;3290;47.716;9.070;2023-08-20T05:34:32;97344.81;;;24.11;92.33
6514;BME280;3290;47.716;9.070;2023-08-20T05:36:57;97356.88;;;24.31;90.81
6514;BME280;3290;47.716;9.070;2023-08-20T05:39:23;97342.09;;;24.34;90.67
6514;BME280;3290;47.716;9.070;2023-08-20T05:41:48;97347.81;;;24.46;90.19
6514;BME280;3290;47.716;9.070;2023-08-20T05:44:14;97347.72;;;24.14;91.54
6514;BME280;3290;47.716;9.070;2023-08-20T05:46:42;97350.53;;;24.04;92.12
6514;BME280;3290;47.716;9.070;2023-08-20T05:49:08;97342.63;;;24.13;91.70
6514;BME280;3290;47.716;9.070;2023-08-20T05:51:43;97342.72;;;24.26;90.53
6514;BME280;3290;47.716;9.070;2023-08-20T05:54:08;97347.44;;;24.34;90.58
6514;BME280;3290;47.716;9.070;2023-08-20T05:56:33;97336.78;;;24.65;88.96
6514;BME280;3290;47.716;9.070;2023-08-20T05:58:58;97332.59;;;24.59;88.97
6514;BME280;3290;47.716;9.070;2023-08-20T06:01:24;97333.78;;;24.85;88.02
6514;BME280;3290;47.716;9.070;2023-08-20T06:03:49;97334.16;;;25.10;86.80
6514;BME280;3290;47.716;9.070;2023-08-20T06:06:14;97329.81;;;25.28;86.49
6514;BME280;3290;47.716;9.070;2023-08-20T06:08:53;97328.13;;;25.32;85.67
6514;BME280;3290;47.716;9.070;2023-08-20T06:11:20;97324.28;;;25.64;84.45
6514;BME280;3290;47.716;9.070;2023-08-20T06:13:45;97322.28;;;25.83;84.38
6514;BME280;3290;47.716;9.070;2023-08-20T06:16:10;97324.69;;;25.71;83.97
6514;BME280;3290;47.716;9.070;2023-08-20T06:18:36;97326.06;;;25.69;84.03
6514;BME280;3290;47.716;9.070;2023-08-20T06:21:07;97318.59;;;25.79;83.11
6514;BME280;3290;47.716;9.070;2023-08-20T06:23:32;97320.50;;;25.92;82.17
6514;BME280;3290;47.716;9.070;2023-08-20T06:25:58;97319.22;;;25.63;82.13
6514;BME280;3290;47.716;9.070;2023-08-20T06:28:23;97319.66;;;26.05;80.35
6514;BME280;3290;47.716;9.070;2023-08-20T06:30:49;97324.97;;;25.83;81.40
6514;BME280;3290;47.716;9.070;2023-08-20T06:33:35;97324.63;;;26.11;80.48
6514;BME280;3290;47.716;9.070;2023-08-20T06:36:05;97332.22;;;26.44;79.40
6514;BME280;3290;47.716;9.070;2023-08-20T06:38:30;97330.88;;;26.07;81.26
6514;BME280;3290;47.716;9.070;2023-08-20T06:40:56;97326.09;;;26.17;79.87
6514;BME280;3290;47.716;9.070;2023-08-20T06:43:21;97327.22;;;26.73;79.30
6514;BME280;3290;47.716;9.070;2023-08-20T06:45:47;97331.50;;;26.96;78.08
6514;BME280;3290;47.716;9.070;2023-08-20T06:48:12;97338.94;;;26.77;77.89
6514;BME280;3290;47.716;9.070;2023-08-20T06:50:37;97338.56;;;27.13;76.71
6514;BME280;3290;47.716;9.070;2023-08-20T06:53:08;97338.31;;;27.23;76.62
6514;BME280;3290;47.716;9.070;2023-08-20T06:55:34;97335.75;;;27.18;75.92
6514;BME280;3290;47.716;9.070;2023-08-20T06:58:00;97331.69;;;27.29;75.92
6514;BME280;3290;47.716;9.070;2023-08-20T07:00:25;97334.81;;;26.93;77.07
6514;BME280;3290;47.716;9.070;2023-08-20T07:02:56;97342.50;;;27.07;76.46
6514;BME280;3290;47.716;9.070;2023-08-20T07:05:24;97338.75;;;27.17;74.52
6514;BME280;3290;47.716;9.070;2023-08-20T07:07:50;97345.59;;;27.23;74.10
6514;BME280;3290;47.716;9.070;2023-08-20T07:10:15;97343.22;;;27.21;75.96
6514;BME280;3290;47.716;9.070;2023-08-20T07:12:40;97342.66;;;27.71;74.72
6514;BME280;3290;47.716;9.070;2023-08-20T07:15:06;97343.97;;;27.82;73.01
6514;BME280;3290;47.716;9.070;2023-08-20T07:17:32;97353.41;;;28.10;73.15
6514;BME280;3290;47.716;9.070;2023-08-20T07:19:57;97353.25;;;28.06;73.50
6514;BME280;3290;47.716;9.070;2023-08-20T07:22:23;97346.28;;;28.05;73.46
6514;BME280;3290;47.716;9.070;2023-08-20T07:24:50;97352.38;;;28.69;68.97
6514;BME280;3290;47.716;9.070;2023-08-20T07:27:16;97349.34;;;28.46;69.08
6514;BME280;3290;47.716;9.070;2023-08-20T07:29:41;97355.25;;;28.81;67.73
6514;BME280;3290;47.716;9.070;2023-08-20T07:32:07;97356.03;;;28.82;65.85
6514;BME280;3290;47.716;9.070;2023-08-20T07:34:32;97355.50;;;29.22;65.33
6514;BME280;3290;47.716;9.070;2023-08-20T07:36:59;97357.44;;;28.96;62.48
6514;BME280;3290;47.716;9.070;2023-08-20T07:39:24;97359.19;;;29.01;63.54
6514;BME280;3290;47.716;9.070;2023-08-20T07:41:52;97366.50;;;28.75;62.98
6514;BME280;3290;47.716;9.070;2023-08-20T07:44:17;97361.25;;;29.12;61.49
6514;BME280;3290;47.716;9.070;2023-08-20T07:46:43;97368.53;;;29.03;61.57
6514;BME280;3290;47.716;9.070;2023-08-20T07:49:08;97358.84;;;29.10;60.60
6514;BME280;3290;47.716;9.070;2023-08-20T07:51:34;97366.75;;;29.15;61.46
6514;BME280;3290;47.716;9.070;2023-08-20T07:54:19;97366.03;;;28.90;62.49
6514;BME280;3290;47.716;9.070;2023-08-20T07:56:45;97372.53;;;28.89;63.43
6514;BME280;3290;47.716;9.070;2023-08-20T07:59:12;97363.78;;;29.00;63.30
6514;BME280;3290;47.716;9.070;2023-08-20T08:01:46;97366.50;;;29.00;63.85
6514;BME280;3290;47.716;9.070;2023-08-20T08:04:12;97367.91;;;29.31;62.56
6514;BME280;3290;47.716;9.070;2023-08-20T08:06:37;97377.91;;;29.76;62.56
6514;BME280;3290;47.716;9.070;2023-08-20T08:09:19;97371.44;;;29.97;61.92
6514;BME280;3290;47.716;9.070;2023-08-20T08:11:45;97374.88;;;29.86;61.90
6514;BME280;3290;47.716;9.070;2023-08-20T08:14:10;97371.97;;;30.20;61.79
6514;BME280;3290;47.716;9.070;2023-08-20T08:16:36;97370.47;;;30.02;61.81
6514;BME280;3290;47.716;9.070;2023-08-20T08:19:02;97367.13;;;30.33;60.45
6514;BME280;3290;47.716;9.070;2023-08-20T08:21:30;97360.66;;;30.46;58.92
6514;BME280;3290;47.716;9.070;2023-08-20T08:23:58;97370.84;;;30.90;56.08
6514;BME280;3290;47.716;9.070;2023-08-20T08:26:24;97368.47;;;30.48;56.81
6514;BME280;3290;47.716;9.070;2023-08-20T08:28:52;97369.72;;;30.70;53.98
6514;BME280;3290;47.716;9.070;2023-08-20T08:31:17;97371.75;;;30.94;54.24
6514;BME280;3290;47.716;9.070;2023-08-20T08:33:43;97374.50;;;31.70;52.96
6514;BME280;3290;47.716;9.070;2023-08-20T08:36:08;97373.25;;;31.55;51.80
6514;BME280;3290;47.716;9.070;2023-08-20T08:38:33;97375.72;;;31.60;49.92
6514;BME280;3290;47.716;9.070;2023-08-20T08:41:03;97377.31;;;31.61;51.07
6514;BME280;3290;47.716;9.070;2023-08-20T08:43:29;97380.59;;;31.03;53.42
6514;BME280;3290;47.716;9.070;2023-08-20T08:45:57;97370.84;;;31.54;50.11
6514;BME280;3290;47.716;9.070;2023-08-20T08:48:22;97365.84;;;31.44;51.66
6514;BME280;3290;47.716;9.070;2023-08-20T08:50:49;97368.06;;;31.62;50.91
6514;BME280;3290;47.716;9.070;2023-08-20T08:53:14;97380.97;;;31.13;52.45
6514;BME280;3290;47.716;9.070;2023-08-20T08:55:40;97375.22;;;31.35;52.08
6514;BME280;3290;47.716;9.070;2023-08-20T08:58:08;97366.59;;;32.48;49.77
6514;BME280;3290;47.716;9.070;2023-08-20T09:00:33;97367.22;;;32.69;49.17
6514;BME280;3290;47.716;9.070;2023-08-20T09:02:59;97376.31;;;32.61;49.25
6514;BME280;3290;47.716;9.070;2023-08-20T09:05:25;97368.66;;;32.03;51.07
6514;BME280;3290;47.716;9.070;2023-08-20T09:07:56;97370.13;;;32.01;50.67
6514;BME280;3290;47.716;9.070;2023-08-20T09:10:27;97375.09;;;31.87;51.48
6514;BME280;3290;47.716;9.070;2023-08-20T09:12:54;97372.59;;;31.82;52.11
6514;BME280;3290;47.716;9.070;2023-08-20T09:15:22;97370.91;;;32.49;49.66
6514;BME280;3290;47.716;9.070;2023-08-20T09:18:01;97373.84;;;31.96;50.68
6514;BME280;3290;47.716;9.070;2023-08-20T09:20:38;97365.47;;;32.25;51.27
6514;BME280;3290;47.716;9.070;2023-08-20T09:23:27;97365.69;;;32.44;48.28
6514;BME280;3290;47.716;9.070;2023-08-20T09:25:53;97365.59;;;32.79;47.88
6514;BME280;3290;47.716;9.070;2023-08-20T09:28:18;97364.72;;;31.89;49.03
6514;BME280;3290;47.716;9.070;2023-08-20T09:31:04;97368.06;;;32.45;48.13
6514;BME280;3290;47.716;9.070;2023-08-20T09:33:29;97364.09;;;33.21;46.47
6514;BME280;3290;47.716;9.070;2023-08-20T09:35:55;97361.75;;;33.35;47.24
6514;BME280;3290;47.716;9.070;2023-08-20T09:38:21;97359.09;;;33.65;45.81
6514;BME280;3290;47.716;9.070;2023-08-20T09:40:58;97368.44;;;33.95;45.05
6514;BME280;3290;47.716;9.070;2023-08-20T09:43:29;97370.19;;;33.88;44.94
6514;BME280;3290;47.716;9.070;2023-08-20T09:45:57;97363.56;;;34.19;43.47
6514;BME280;3290;47.716;9.070;2023-08-20T09:48:34;97367.25;;;33.81;44.31
6514;BME280;3290;47.716;9.070;2023-08-20T09:51:04;97361.81;;;34.27;42.75
6514;BME280;3290;47.716;9.070;2023-08-20T09:53:44;97360.59;;;34.58;42.73
6514;BME280;3290;47.716;9.070;2023-08-20T09:56:15;97362.72;;;34.83;41.45
6514;BME280;3290;47.716;9.070;2023-08-20T09:58:43;97364.97;;;34.63;41.93
6514;BME280;3290;47.716;9.070;2023-08-20T10:01:09;97367.50;;;35.09;41.69
6514;BME280;3290;47.716;9.070;2023-08-20T10:03:35;97353.66;;;34.79;41.34
6514;BME280;3290;47.716;9.070;2023-08-20T10:06:02;97362.66;;;34.99;41.70
6514;BME280;3290;47.716;9.070;2023-08-20T10:08:28;97355.59;;;34.79;41.58
6514;BME280;3290;47.716;9.070;2023-08-20T10:10:54;97365.50;;;34.87;41.43
6514;BME280;3290;47.716;9.070;2023-08-20T10:13:19;97357.53;;;35.35;39.98
6514;BME280;3290;47.716;9.070;2023-08-20T10:15:45;97361.00;;;34.94;40.69
6514;BME280;3290;47.716;9.070;2023-08-20T10:18:11;97357.09;;;35.33;40.18
6514;BME280;3290;47.716;9.070;2023-08-20T10:20:38;97361.53;;;35.63;40.26
6514;BME280;3290;47.716;9.070;2023-08-20T10:23:04;97358.13;;;35.06;41.34
6514;BME280;3290;47.716;9.070;2023-08-20T10:25:30;97358.41;;;35.20;41.51
6514;BME280;3290;47.716;9.070;2023-08-20T10:28:12;97356.31;;;35.32;40.51
6514;BME280;3290;47.716;9.070;2023-08-20T10:30:38;97358.34;;;36.02;39.29
6514;BME280;3290;47.716;9.070;2023-08-20T10:33:04;97355.16;;;34.58;41.98
6514;BME280;3290;47.716;9.070;2023-08-20T10:40:49;97352.88;;;35.17;41.20
6514;BME280;3290;47.716;9.070;2023-08-20T10:48:56;97348.09;;;35.51;41.62
6514;BME280;3290;47.716;9.070;2023-08-20T10:59:22;97340.09;;;35.84;41.27
6514;BME280;3290;47.716;9.070;2023-08-20T11:01:55;97332.97;;;35.98;41.29
6514;BME280;3290;47.716;9.070;2023-08-20T11:04:24;97341.63;;;35.81;42.58
6514;BME280;3290;47.716;9.070;2023-08-20T11:06:56;97331.41;;;36.01;41.99
6514;BME280;3290;47.716;9.070;2023-08-20T11:09:23;97337.44;;;35.65;41.89
6514;BME280;3290;47.716;9.070;2023-08-20T11:11:50;97339.03;;;35.06;43.87
6514;BME280;3290;47.716;9.070;2023-08-20T11:14:17;97337.59;;;35.31;43.37
6514;BME280;3290;47.716;9.070;2023-08-20T11:16:51;97334.19;;;35.56;41.49
6514;BME280;3290;47.716;9.070;2023-08-20T11:19:23;97336.91;;;35.56;42.19
6514;BME280;3290;47.716;9.070;2023-08-20T11:21:49;97340.44;;;35.79;40.90
6514;BME280;3290;47.716;9.070;2023-08-20T11:24:15;97327.09;;;36.00;40.67
6514;BME280;3290;47.716;9.070;2023-08-20T11:26:42;97330.78;;;35.85;40.21
6514;BME280;3290;47.716;9.070;2023-08-20T11:29:08;97332.22;;;35.34;40.87
6514;BME280;3290;47.716;9.070;2023-08-20T11:31:37;97337.06;;;35.25;41.94
6514;BME280;3290;47.716;9.070;2023-08-20T11:34:12;97332.75;;;35.02;40.90
6514;BME280;3290;47.716;9.070;2023-08-20T11:36:43;97315.06;;;36.26;39.93
6514;BME280;3290;47.716;9.070;2023-08-20T11:39:09;97318.41;;;35.46;40.87
6514;BME280;3290;47.716;9.070;2023-08-20T11:41:46;97318.72;;;35.63;40.35
6514;BME280;3290;47.716;9.070;2023-08-20T11:44:19;97313.00;;;36.45;38.77
6514;BME280;3290;47.716;9.070;2023-08-20T11:46:54;97310.78;;;37.16;37.23
6514;BME280;3290;47.716;9.070;2023-08-20T11:49:28;97309.41;;;35.68;38.74
6514;BME280;3290;47.716;9.070;2023-08-20T11:52:02;97322.34;;;35.49;38.80
6514;BME280;3290;47.716;9.070;2023-08-20T11:54:31;97311.03;;;34.87;38.51
6514;BME280;3290;47.716;9.070;2023-08-20T11:57:07;97305.41;;;35.18;38.55
6514;BME280;3290;47.716;9.070;2023-08-20T11:59:33;97303.22;;;35.71;38.56
6514;BME280;3290;47.716;9.070;2023-08-20T12:01:59;97298.88;;;35.89;39.07
6514;BME280;3290;47.716;9.070;2023-08-20T12:04:26;97301.31;;;35.49;38.36
6514;BME280;3290;47.716;9.070;2023-08-20T12:07:24;97298.09;;;35.44;38.88
6514;BME280;3290;47.716;9.070;2023-08-20T12:09:49;97291.41;;;35.86;38.28
6514;BME280;3290;47.716;9.070;2023-08-20T12:12:19;97285.94;;;36.11;38.33
6514;BME280;3290;47.716;9.070;2023-08-20T12:14:46;97283.88;;;36.27;37.58
6514;BME280;3290;47.716;9.070;2023-08-20T12:17:11;97278.34;;;36.82;37.23
6514;BME280;3290;47.716;9.070;2023-08-20T12:19:37;97282.06;;;36.12;37.91
6514;BME280;3290;47.716;9.070;2023-08-20T12:22:02;97283.84;;;35.76;38.48
6514;BME280;3290;47.716;9.070;2023-08-20T12:24:29;97280.69;;;35.29;39.31
6514;BME280;3290;47.716;9.070;2023-08-20T12:26:54;97288.22;;;35.58;37.56
6514;BME280;3290;47.716;9.070;2023-08-20T12:29:20;97284.16;;;35.08;38.04
6514;BME280;3290;47.716;9.070;2023-08-20T12:31:48;97276.44;;;35.54;37.48
6514;BME280;3290;47.716;9.070;2023-08-20T12:34:24;97274.75;;;35.46;37.17
6514;BME280;3290;47.716;9.070;2023-08-20T12:36:51;97265.59;;;36.05;36.39
6514;BME280;3290;47.716;9.070;2023-08-20T12:39:21;97263.25;;;35.56;36.37
6514;BME280;3290;47.716;9.070;2023-08-20T12:41:47;97269.97;;;35.40;36.32
6514;BME280;3290;47.716;9.070;2023-08-20T12:44:12;97270.16;;;35.50;35.96
6514;BME280;3290;47.716;9.070;2023-08-20T12:46:37;97272.41;;;36.44;35.99
6514;BME280;3290;47.716;9.070;2023-08-20T12:49:03;97254.41;;;35.88;34.59
6514;BME280;3290;47.716;9.070;2023-08-20T12:51:29;97262.81;;;35.76;35.83
6514;BME280;3290;47.716;9.070;2023-08-20T12:53:54;97261.44;;;35.89;35.02
6514;BME280;3290;47.716;9.070;2023-08-20T12:56:19;97256.50;;;36.24;34.32
6514;BME280;3290;47.716;9.070;2023-08-20T12:58:50;97253.28;;;36.18;35.74
6514;BME280;3290;47.716;9.070;2023-08-20T13:01:18;97254.41;;;35.40;36.71
6514;BME280;3290;47.716;9.070;2023-08-20T13:03:44;97251.13;;;35.31;35.47
6514;BME280;3290;47.716;9.070;2023-08-20T13:06:12;97253.06;;;34.71;38.12
6514;BME280;3290;47.716;9.070;2023-08-20T13:08:41;97239.06;;;35.55;36.33
6514;BME280;3290;47.716;9.070;2023-08-20T13:11:09;97239.59;;;35.63;36.30
6514;BME280;3290;47.716;9.070;2023-08-20T13:13:40;97239.81;;;34.70;40.26
6514;BME280;3290;47.716;9.070;2023-08-20T13:16:06;97240.50;;;35.49;39.54
6514;BME280;3290;47.716;9.070;2023-08-20T13:18:31;97235.34;;;36.17;38.90
6514;BME280;3290;47.716;9.070;2023-08-20T13:20:57;97238.38;;;36.12;38.72
6514;BME280;3290;47.716;9.070;2023-08-20T13:23:22;97229.50;;;35.90;36.24
6514;BME280;3290;47.716;9.070;2023-08-20T13:25:48;97227.66;;;36.23;35.98
6514;BME280;3290;47.716;9.070;2023-08-20T13:28:14;97234.81;;;36.34;34.76
6514;BME280;3290;47.716;9.070;2023-08-20T13:30:39;97226.88;;;36.55;34.23
6514;BME280;3290;47.716;9.070;2023-08-20T13:33:05;97226.50;;;35.98;34.30
6514;BME280;3290;47.716;9.070;2023-08-20T13:35:30;97229.50;;;35.90;32.62
6514;BME280;3290;47.716;9.070;2023-08-20T13:37:55;97227.19;;;35.92;34.43
6514;BME280;3290;47.716;9.070;2023-08-20T13:40:21;97229.06;;;35.88;34.68
6514;BME280;3290;47.716;9.070;2023-08-20T13:43:10;97233.31;;;35.85;34.11
6514;BME280;3290;47.716;9.070;2023-08-20T13:45:35;97220.94;;;35.43;35.27
6514;BME280;3290;47.716;9.070;2023-08-20T13:48:00;97225.38;;;35.77;34.63
6514;BME280;3290;47.716;9.070;2023-08-20T13:50:25;97225.63;;;35.68;34.40
6514;BME280;3290;47.716;9.070;2023-08-20T13:52:51;97222.81;;;36.75;33.79
6514;BME280;3290;47.716;9.070;2023-08-20T13:55:19;97219.44;;;35.97;35.66